• Join FlightAware (Why Join?)
  • Login
  • US Flag 
09:55PM EDT


 

Airport Tracker/Info


-or-


 

Live Flight TrackerFlight Track Log ✈ UAL4846 ✈ 24-Apr-2013 ✈ KROC - KEWR

Flight Track Log - Related Links

Times and Time Zones

All times are in EDT time to prevent confusion due to time zone crossing. See the UAL4846 flight status page for this flight to view local times or setup timezone preferences in your user account.

Time Position Orientation Groundspeed Altitude Reporting Facility
EDT Latitude Longitude Course Direction KTS MPH feet Rate Location/Type
06:38AM 43.1075 -77.6883 124° Southeast 92 106 1,000  Level Cleveland Center
06:39AM 43.0889 -77.6864 176° South 104 120 2,100 1,260 Climbing Cleveland Center
06:40AM 43.0589 -77.6536 141° Southeast 174 200 3,200 1,080 Climbing Cleveland Center
06:41AM 43.0408 -77.6006 115° Southeast 175 201 4,300 1,260 Climbing Cleveland Center
06:42AM 43.0161 -77.5392 119° Southeast 175 201 5,700 1,380 Climbing Cleveland Center
06:43AM 42.8910 -77.1486 124° Southeast  Level FlightAware Approximate
06:43AM 42.9939 -77.4778 116° Southeast 175 201 7,100  Level Cleveland Center
06:44AM 42.9733 -77.4164 115° Southeast 175 201 8,600 1,380 Climbing Cleveland Center
06:45AM 42.9508 -77.3522 116° Southeast 175 201 9,900 1,200 Climbing Cleveland Center
06:46AM 42.9281 -77.2881 116° Southeast 175 201 11,000 540 Climbing Cleveland Center
06:47AM 42.9008 -77.2103 116° Southeast 199 229 11,000  Level Cleveland Center
06:49AM 42.8331 -77.0203 116° Southeast 276 318 11,100 60 Climbing New York Center
06:50AM 42.7964 -76.9292 119° Southeast 291 335 11,200  Climbing New York Center
06:51AM 42.7592 -76.8408 120° Southeast 286 329 11,100 -120 Descending New York Center
06:52AM 42.7197 -76.7553 122° Southeast 274 315 11,000 -60 Descending New York Center
06:53AM 42.6825 -76.6672 120° Southeast 269 310 11,000  Level New York Center
06:54AM 42.6431 -76.5819 122° Southeast 269 310 11,000  Level New York Center
06:55AM 42.6056 -76.4969 121° Southeast 269 310 11,000  Level New York Center
06:55AM 42.5797 -76.4472 125° Southeast 268 308 11,000 -120 Level Boston Center
06:56AM 42.5411 -76.3603 121° Southeast 273 314 10,900 -60 Descending Boston Center
06:57AM 42.5025 -76.2733 121° Southeast 273 314 10,900  Level Boston Center
06:58AM 42.4694 -76.1981 121° Southeast 273 314 10,900  Level Boston Center
06:59AM 42.4208 -76.0939 122° Southeast 268 308 10,900  Level Boston Center
07:00AM 42.3817 -76.0128 123° Southeast 275 316 10,900  Level Boston Center
07:01AM 42.3408 -75.9178 120° Southeast 267 307 10,900  Level Boston Center
07:02AM 42.3039 -75.8314 120° Southeast 273 314 10,900  Level Boston Center
07:03AM 42.2683 -75.7594 124° Southeast 266 306 10,900  Level Boston Center
07:04AM 42.2292 -75.6761 122° Southeast 266 306 10,900  Level Boston Center
07:05AM 42.1900 -75.5900 122° Southeast 266 306 10,900  Level Boston Center
07:06AM 42.1506 -75.5039 122° Southeast 266 306 10,900  Level Boston Center
07:07AM 42.1111 -75.4208 123° Southeast 266 306 11,000  Climbing Boston Center
07:08AM 42.0717 -75.3322 121° Southeast 271 312 11,000  Level Boston Center
07:09AM 42.0344 -75.2439 120° Southeast 271 312 11,000  Level Boston Center
07:10AM 42.0033 -75.1503 114° Southeast 271 312 11,000  Level Boston Center
07:11AM 41.9639 -75.0536 119° Southeast 276 318 11,000 -300 Level Boston Center
07:12AM 41.9178 -74.9708 127° Southeast 271 312 10,500 -900 Descending Boston Center
07:13AM 41.8458 -74.9206 152° Southeast 278 320 9,200 -1,200 Descending Boston Center
07:14AM 41.7783 -74.8678 150° Southeast 289 333 8,200 -1,020 Descending Boston Center
07:15AM 41.7106 -74.8150 150° Southeast 278 320 7,200 -600 Descending Boston Center
07:16AM 41.6450 -74.7653 150° Southeast 278 320 7,000 -360 Descending Boston Center
07:17AM 41.5792 -74.7158 151° Southeast 278 320 6,500 -540 Descending Boston Center
07:18AM 41.5114 -74.6661 151° Southeast 278 320 6,000 -300 Descending Boston Center
07:19AM 41.4456 -74.6197 152° Southeast 271 312 6,000  Level Boston Center
07:20AM 41.3667 -74.6000 169° South 254 292 6,000  Level New York TRACON
07:21AM 41.3167 -74.6333 207° Southwest 250 288 6,000  Level New York TRACON
07:22AM 41.2500 -74.6500 191° South 244 281 6,000  Level New York TRACON
07:23AM 41.2000 -74.6833 207° Southwest 247 284 6,000  Level New York TRACON
07:24AM 41.1167 -74.6833 180° South 252 290 6,000 -180 Level New York TRACON
07:25AM 41.0500 -74.6667 169° South 255 293 5,700 -540 Descending New York TRACON
07:26AM 41.0167 -74.6000 124° Southeast 267 307 5,000 -360 Descending New York TRACON
07:27AM 41.0167 -74.5000 90° East 263 303 5,000  Level New York TRACON
07:28AM 41.0333 -74.4167 75° East 245 282 5,000  Level New York TRACON
07:29AM 41.0333 -74.3333 90° East 249 287 5,000 -180 Level New York TRACON
07:30AM 41.0000 -74.2500 118° Southeast 251 289 4,700 -540 Descending New York TRACON
07:31AM 40.9500 -74.2000 143° Southeast 248 285 4,000 -720 Descending New York TRACON
07:32AM 40.9000 -74.1333 135° Southeast 231 266 3,300 -600 Descending New York TRACON
07:33AM 40.8833 -74.0833 114° Southeast 201 231 2,900 -360 Descending New York TRACON
07:34AM 40.8333 -74.0833 180° South 178 205 2,700 -540 Descending New York TRACON
07:35AM 40.7833 -74.1000 194° South 149 171 1,900 -780 Descending New York TRACON
07:36AM 40.7500 -74.1333 217° Southwest 147 169 1,200 -780 Descending New York TRACON
07:37AM 40.7167 -74.1500 201° Southwest 139 160 400 -840 Descending New York TRACON
07:39AM 40.6925 -74.1687 175° South  Level Estimated
07:46AM 40.6925 -74.1687 175° South  Level Estimated
07:47AM 40.6925 -74.1687 175° South  Level Estimated